sensor_id;sensor_type;location;lat;lon;timestamp;P1;durP1;ratioP1;P2;durP2;ratioP2
54307;SDS011;40208;39.778;2.710;2022-09-03T00:01:51;4.65;;;2.05;;
54307;SDS011;40208;39.778;2.710;2022-09-03T00:14:06;7.95;;;3.25;;
54307;SDS011;40208;39.778;2.710;2022-09-03T00:16:56;11.82;;;2.80;;
54307;SDS011;40208;39.778;2.710;2022-09-03T00:19:56;8.60;;;3.10;;
54307;SDS011;40208;39.778;2.710;2022-09-03T00:22:49;6.88;;;2.72;;
54307;SDS011;40208;39.778;2.710;2022-09-03T00:25:42;8.27;;;2.53;;
54307;SDS011;40208;39.778;2.710;2022-09-03T00:31:52;7.75;;;2.65;;
54307;SDS011;40208;39.778;2.710;2022-09-03T00:34:42;5.13;;;2.75;;
54307;SDS011;40208;39.778;2.710;2022-09-03T00:37:33;10.35;;;2.75;;
54307;SDS011;40208;39.778;2.710;2022-09-03T00:40:27;7.18;;;2.65;;
54307;SDS011;40208;39.778;2.710;2022-09-03T00:52:21;5.47;;;2.50;;
54307;SDS011;40208;39.778;2.710;2022-09-03T00:58:25;7.53;;;2.47;;
54307;SDS011;40208;39.778;2.710;2022-09-03T01:01:27;8.63;;;2.00;;
54307;SDS011;40208;39.778;2.710;2022-09-03T01:10:49;6.32;;;2.15;;
54307;SDS011;40208;39.778;2.710;2022-09-03T01:19:18;4.57;;;2.05;;
54307;SDS011;40208;39.778;2.710;2022-09-03T01:22:37;4.97;;;1.90;;
54307;SDS011;40208;39.778;2.710;2022-09-03T01:25:52;10.02;;;2.20;;
54307;SDS011;40208;39.778;2.710;2022-09-03T02:00:29;8.02;;;2.28;;
54307;SDS011;40208;39.778;2.710;2022-09-03T02:03:17;5.20;;;1.90;;
54307;SDS011;40208;39.778;2.710;2022-09-03T02:06:03;10.18;;;2.80;;
54307;SDS011;40208;39.778;2.710;2022-09-03T02:08:50;10.05;;;2.38;;
54307;SDS011;40208;39.778;2.710;2022-09-03T02:11:35;6.90;;;2.30;;
54307;SDS011;40208;39.778;2.710;2022-09-03T02:14:20;7.65;;;2.33;;
54307;SDS011;40208;39.778;2.710;2022-09-03T02:17:05;6.00;;;2.20;;
54307;SDS011;40208;39.778;2.710;2022-09-03T02:19:51;5.20;;;1.80;;
54307;SDS011;40208;39.778;2.710;2022-09-03T02:22:37;6.65;;;1.88;;
54307;SDS011;40208;39.778;2.710;2022-09-03T02:25:25;5.38;;;2.00;;
54307;SDS011;40208;39.778;2.710;2022-09-03T02:28:14;5.05;;;2.03;;
54307;SDS011;40208;39.778;2.710;2022-09-03T02:30:59;3.42;;;1.60;;
54307;SDS011;40208;39.778;2.710;2022-09-03T02:33:45;5.72;;;2.10;;
54307;SDS011;40208;39.778;2.710;2022-09-03T02:36:39;5.57;;;1.90;;
54307;SDS011;40208;39.778;2.710;2022-09-03T02:39:26;3.70;;;1.77;;
54307;SDS011;40208;39.778;2.710;2022-09-03T02:42:12;2.97;;;1.55;;
54307;SDS011;40208;39.778;2.710;2022-09-03T02:45:00;5.82;;;1.58;;
54307;SDS011;40208;39.778;2.710;2022-09-03T02:47:55;6.38;;;2.20;;
54307;SDS011;40208;39.778;2.710;2022-09-03T02:50:42;7.50;;;2.75;;
54307;SDS011;40208;39.778;2.710;2022-09-03T02:53:27;9.10;;;2.10;;
54307;SDS011;40208;39.778;2.710;2022-09-03T02:56:12;10.43;;;2.67;;
54307;SDS011;40208;39.778;2.710;2022-09-03T02:58:57;6.75;;;2.40;;
54307;SDS011;40208;39.778;2.710;2022-09-03T03:01:43;7.72;;;2.40;;
54307;SDS011;40208;39.778;2.710;2022-09-03T03:04:28;6.60;;;2.33;;
54307;SDS011;40208;39.778;2.710;2022-09-03T03:07:14;10.48;;;2.33;;
54307;SDS011;40208;39.778;2.710;2022-09-03T03:09:59;8.73;;;2.45;;
54307;SDS011;40208;39.778;2.710;2022-09-03T03:12:43;3.65;;;1.65;;
54307;SDS011;40208;39.778;2.710;2022-09-03T03:15:28;4.43;;;2.03;;
54307;SDS011;40208;39.778;2.710;2022-09-03T03:18:13;9.45;;;1.98;;
54307;SDS011;40208;39.778;2.710;2022-09-03T03:21:03;5.18;;;1.83;;
54307;SDS011;40208;39.778;2.710;2022-09-03T03:23:52;7.35;;;2.00;;
54307;SDS011;40208;39.778;2.710;2022-09-03T03:26:36;5.90;;;1.92;;
54307;SDS011;40208;39.778;2.710;2022-09-03T03:29:21;8.73;;;2.13;;
54307;SDS011;40208;39.778;2.710;2022-09-03T03:32:08;9.25;;;2.10;;
54307;SDS011;40208;39.778;2.710;2022-09-03T03:34:53;7.43;;;2.40;;
54307;SDS011;40208;39.778;2.710;2022-09-03T03:37:38;5.78;;;2.00;;
54307;SDS011;40208;39.778;2.710;2022-09-03T03:40:23;5.20;;;2.55;;
54307;SDS011;40208;39.778;2.710;2022-09-03T03:43:08;9.23;;;2.47;;
54307;SDS011;40208;39.778;2.710;2022-09-03T03:45:57;7.72;;;2.63;;
54307;SDS011;40208;39.778;2.710;2022-09-03T03:48:42;8.15;;;2.05;;
54307;SDS011;40208;39.778;2.710;2022-09-03T03:51:27;10.18;;;2.05;;
54307;SDS011;40208;39.778;2.710;2022-09-03T03:54:13;6.00;;;2.17;;
54307;SDS011;40208;39.778;2.710;2022-09-03T03:56:58;9.18;;;2.30;;
54307;SDS011;40208;39.778;2.710;2022-09-03T03:59:43;7.00;;;2.05;;
54307;SDS011;40208;39.778;2.710;2022-09-03T04:02:28;11.48;;;2.90;;
54307;SDS011;40208;39.778;2.710;2022-09-03T04:05:12;4.95;;;2.33;;
54307;SDS011;40208;39.778;2.710;2022-09-03T04:08:00;7.55;;;2.30;;
54307;SDS011;40208;39.778;2.710;2022-09-03T04:10:46;9.20;;;3.17;;
54307;SDS011;40208;39.778;2.710;2022-09-03T04:13:31;11.35;;;2.50;;
54307;SDS011;40208;39.778;2.710;2022-09-03T04:16:18;7.78;;;2.95;;
54307;SDS011;40208;39.778;2.710;2022-09-03T04:19:05;10.40;;;2.80;;
54307;SDS011;40208;39.778;2.710;2022-09-03T04:21:49;7.35;;;2.45;;
54307;SDS011;40208;39.778;2.710;2022-09-03T04:24:34;9.10;;;2.83;;
54307;SDS011;40208;39.778;2.710;2022-09-03T04:27:19;12.15;;;2.65;;
54307;SDS011;40208;39.778;2.710;2022-09-03T04:30:03;9.32;;;1.95;;
54307;SDS011;40208;39.778;2.710;2022-09-03T04:32:49;12.82;;;2.72;;
54307;SDS011;40208;39.778;2.710;2022-09-03T04:35:36;10.30;;;2.65;;
54307;SDS011;40208;39.778;2.710;2022-09-03T04:38:21;9.25;;;2.90;;
54307;SDS011;40208;39.778;2.710;2022-09-03T04:41:08;16.50;;;3.10;;
54307;SDS011;40208;39.778;2.710;2022-09-03T04:43:55;11.63;;;2.55;;
54307;SDS011;40208;39.778;2.710;2022-09-03T04:46:41;7.70;;;2.60;;
54307;SDS011;40208;39.778;2.710;2022-09-03T04:49:25;16.35;;;2.95;;
54307;SDS011;40208;39.778;2.710;2022-09-03T04:52:10;7.82;;;2.42;;
54307;SDS011;40208;39.778;2.710;2022-09-03T04:54:56;11.20;;;3.17;;
54307;SDS011;40208;39.778;2.710;2022-09-03T04:57:41;9.50;;;3.08;;
54307;SDS011;40208;39.778;2.710;2022-09-03T05:00:26;15.25;;;3.22;;
54307;SDS011;40208;39.778;2.710;2022-09-03T05:03:11;11.10;;;2.67;;
54307;SDS011;40208;39.778;2.710;2022-09-03T05:05:56;16.17;;;3.50;;
54307;SDS011;40208;39.778;2.710;2022-09-03T05:08:41;17.73;;;3.38;;
54307;SDS011;40208;39.778;2.710;2022-09-03T05:11:27;17.30;;;3.75;;
54307;SDS011;40208;39.778;2.710;2022-09-03T05:14:13;10.63;;;3.05;;
54307;SDS011;40208;39.778;2.710;2022-09-03T05:16:57;13.43;;;2.80;;
54307;SDS011;40208;39.778;2.710;2022-09-03T05:19:42;9.93;;;3.75;;
54307;SDS011;40208;39.778;2.710;2022-09-03T05:22:27;13.98;;;2.75;;
54307;SDS011;40208;39.778;2.710;2022-09-03T05:25:12;12.88;;;3.13;;
54307;SDS011;40208;39.778;2.710;2022-09-03T05:27:57;12.88;;;3.20;;
54307;SDS011;40208;39.778;2.710;2022-09-03T05:30:42;15.90;;;3.50;;
54307;SDS011;40208;39.778;2.710;2022-09-03T05:33:27;13.32;;;2.92;;
54307;SDS011;40208;39.778;2.710;2022-09-03T05:36:13;18.38;;;4.07;;
54307;SDS011;40208;39.778;2.710;2022-09-03T05:39:00;12.45;;;3.67;;
54307;SDS011;40208;39.778;2.710;2022-09-03T05:41:45;15.13;;;3.45;;
54307;SDS011;40208;39.778;2.710;2022-09-03T05:44:29;11.75;;;3.20;;
54307;SDS011;40208;39.778;2.710;2022-09-03T05:47:15;18.52;;;3.20;;
54307;SDS011;40208;39.778;2.710;2022-09-03T05:50:00;26.65;;;3.30;;
54307;SDS011;40208;39.778;2.710;2022-09-03T05:52:45;23.95;;;3.60;;
54307;SDS011;40208;39.778;2.710;2022-09-03T05:55:30;12.35;;;3.72;;
54307;SDS011;40208;39.778;2.710;2022-09-03T05:58:14;14.07;;;3.25;;
54307;SDS011;40208;39.778;2.710;2022-09-03T06:01:08;9.95;;;3.30;;
54307;SDS011;40208;39.778;2.710;2022-09-03T06:03:54;11.73;;;3.20;;
54307;SDS011;40208;39.778;2.710;2022-09-03T06:06:42;10.93;;;3.00;;
54307;SDS011;40208;39.778;2.710;2022-09-03T06:09:28;16.23;;;3.28;;
54307;SDS011;40208;39.778;2.710;2022-09-03T06:12:13;19.45;;;4.13;;
54307;SDS011;40208;39.778;2.710;2022-09-03T06:14:58;17.50;;;3.78;;
54307;SDS011;40208;39.778;2.710;2022-09-03T06:17:43;13.27;;;3.20;;
54307;SDS011;40208;39.778;2.710;2022-09-03T06:20:28;13.32;;;3.33;;
54307;SDS011;40208;39.778;2.710;2022-09-03T06:23:13;10.70;;;3.28;;
54307;SDS011;40208;39.778;2.710;2022-09-03T06:26:05;17.92;;;3.58;;
54307;SDS011;40208;39.778;2.710;2022-09-03T06:28:50;21.38;;;3.80;;
54307;SDS011;40208;39.778;2.710;2022-09-03T06:31:38;15.95;;;3.75;;
54307;SDS011;40208;39.778;2.710;2022-09-03T06:34:22;27.63;;;4.50;;
54307;SDS011;40208;39.778;2.710;2022-09-03T06:37:10;11.73;;;3.15;;
54307;SDS011;40208;39.778;2.710;2022-09-03T06:39:55;15.40;;;3.15;;
54307;SDS011;40208;39.778;2.710;2022-09-03T06:42:40;12.95;;;3.75;;
54307;SDS011;40208;39.778;2.710;2022-09-03T06:45:25;22.00;;;3.30;;
54307;SDS011;40208;39.778;2.710;2022-09-03T06:48:10;18.20;;;3.47;;
54307;SDS011;40208;39.778;2.710;2022-09-03T06:50:59;11.43;;;3.47;;
54307;SDS011;40208;39.778;2.710;2022-09-03T06:53:46;17.33;;;3.60;;
54307;SDS011;40208;39.778;2.710;2022-09-03T06:56:36;19.73;;;3.97;;
54307;SDS011;40208;39.778;2.710;2022-09-03T06:59:22;21.27;;;3.65;;
54307;SDS011;40208;39.778;2.710;2022-09-03T07:02:07;18.65;;;3.85;;
54307;SDS011;40208;39.778;2.710;2022-09-03T07:04:52;14.77;;;3.75;;
54307;SDS011;40208;39.778;2.710;2022-09-03T07:07:36;15.20;;;3.58;;
54307;SDS011;40208;39.778;2.710;2022-09-03T07:10:22;21.30;;;3.75;;
54307;SDS011;40208;39.778;2.710;2022-09-03T07:13:06;14.23;;;3.25;;
54307;SDS011;40208;39.778;2.710;2022-09-03T07:16:01;23.48;;;3.10;;
54307;SDS011;40208;39.778;2.710;2022-09-03T07:18:48;16.83;;;4.15;;
54307;SDS011;40208;39.778;2.710;2022-09-03T07:21:34;19.85;;;3.92;;
54307;SDS011;40208;39.778;2.710;2022-09-03T07:24:24;19.70;;;5.20;;
54307;SDS011;40208;39.778;2.710;2022-09-03T07:27:10;20.80;;;4.00;;
54307;SDS011;40208;39.778;2.710;2022-09-03T07:29:55;19.98;;;4.45;;
54307;SDS011;40208;39.778;2.710;2022-09-03T07:32:40;17.00;;;4.18;;
54307;SDS011;40208;39.778;2.710;2022-09-03T07:35:25;14.48;;;3.97;;
54307;SDS011;40208;39.778;2.710;2022-09-03T07:38:10;24.45;;;4.57;;
54307;SDS011;40208;39.778;2.710;2022-09-03T07:40:57;12.75;;;3.25;;
54307;SDS011;40208;39.778;2.710;2022-09-03T07:43:43;14.98;;;3.80;;
54307;SDS011;40208;39.778;2.710;2022-09-03T07:46:32;11.27;;;3.67;;
54307;SDS011;40208;39.778;2.710;2022-09-03T07:49:20;14.75;;;3.72;;
54307;SDS011;40208;39.778;2.710;2022-09-03T07:52:04;13.68;;;3.30;;
54307;SDS011;40208;39.778;2.710;2022-09-03T07:54:50;12.25;;;2.97;;
54307;SDS011;40208;39.778;2.710;2022-09-03T07:57:35;15.52;;;2.90;;
54307;SDS011;40208;39.778;2.710;2022-09-03T08:00:20;14.40;;;3.20;;
54307;SDS011;40208;39.778;2.710;2022-09-03T08:03:05;14.63;;;2.60;;
54307;SDS011;40208;39.778;2.710;2022-09-03T08:05:52;10.32;;;3.03;;
54307;SDS011;40208;39.778;2.710;2022-09-03T08:08:37;11.43;;;2.65;;
54307;SDS011;40208;39.778;2.710;2022-09-03T08:11:23;12.02;;;2.85;;
54307;SDS011;40208;39.778;2.710;2022-09-03T08:14:10;12.10;;;2.83;;
54307;SDS011;40208;39.778;2.710;2022-09-03T08:16:56;12.25;;;2.40;;
54307;SDS011;40208;39.778;2.710;2022-09-03T08:19:43;10.77;;;2.65;;
54307;SDS011;40208;39.778;2.710;2022-09-03T08:22:29;16.95;;;3.13;;
54307;SDS011;40208;39.778;2.710;2022-09-03T08:25:14;10.50;;;2.65;;
54307;SDS011;40208;39.778;2.710;2022-09-03T08:27:59;17.13;;;2.67;;
54307;SDS011;40208;39.778;2.710;2022-09-03T08:30:44;10.80;;;2.70;;
54307;SDS011;40208;39.778;2.710;2022-09-03T08:33:29;8.07;;;2.72;;
54307;SDS011;40208;39.778;2.710;2022-09-03T08:36:24;10.95;;;2.83;;
54307;SDS011;40208;39.778;2.710;2022-09-03T08:39:10;8.15;;;2.20;;
54307;SDS011;40208;39.778;2.710;2022-09-03T08:41:59;9.95;;;2.70;;
54307;SDS011;40208;39.778;2.710;2022-09-03T08:45:15;8.82;;;2.63;;
54307;SDS011;40208;39.778;2.710;2022-09-03T08:48:06;9.15;;;2.38;;
54307;SDS011;40208;39.778;2.710;2022-09-03T08:50:57;10.60;;;2.90;;
54307;SDS011;40208;39.778;2.710;2022-09-03T08:53:48;10.15;;;2.60;;
54307;SDS011;40208;39.778;2.710;2022-09-03T08:56:38;8.93;;;2.40;;
54307;SDS011;40208;39.778;2.710;2022-09-03T08:59:25;9.65;;;2.67;;
54307;SDS011;40208;39.778;2.710;2022-09-03T09:02:20;11.45;;;2.60;;
54307;SDS011;40208;39.778;2.710;2022-09-03T09:05:24;11.30;;;2.95;;
54307;SDS011;40208;39.778;2.710;2022-09-03T09:08:32;16.65;;;3.65;;
54307;SDS011;40208;39.778;2.710;2022-09-03T09:14:34;11.80;;;2.13;;
54307;SDS011;40208;39.778;2.710;2022-09-03T09:26:18;9.02;;;1.98;;
54307;SDS011;40208;39.778;2.710;2022-09-03T09:29:07;13.07;;;2.30;;
54307;SDS011;40208;39.778;2.710;2022-09-03T09:31:54;13.13;;;4.03;;
54307;SDS011;40208;39.778;2.710;2022-09-03T09:34:40;24.13;;;3.38;;
54307;SDS011;40208;39.778;2.710;2022-09-03T09:37:25;12.68;;;2.85;;
54307;SDS011;40208;39.778;2.710;2022-09-03T09:40:10;10.50;;;2.25;;
54307;SDS011;40208;39.778;2.710;2022-09-03T09:46:05;22.67;;;3.17;;
54307;SDS011;40208;39.778;2.710;2022-09-03T09:48:53;15.02;;;2.95;;
54307;SDS011;40208;39.778;2.710;2022-09-03T09:51:40;9.05;;;2.25;;
54307;SDS011;40208;39.778;2.710;2022-09-03T09:54:25;8.65;;;1.83;;
54307;SDS011;40208;39.778;2.710;2022-09-03T09:57:20;6.88;;;3.15;;
54307;SDS011;40208;39.778;2.710;2022-09-03T10:00:08;17.35;;;2.20;;
54307;SDS011;40208;39.778;2.710;2022-09-03T10:02:56;11.20;;;2.33;;
54307;SDS011;40208;39.778;2.710;2022-09-03T10:05:40;7.78;;;2.67;;
54307;SDS011;40208;39.778;2.710;2022-09-03T10:08:27;9.88;;;3.13;;
54307;SDS011;40208;39.778;2.710;2022-09-03T10:11:12;8.15;;;2.42;;
54307;SDS011;40208;39.778;2.710;2022-09-03T10:13:57;13.07;;;2.60;;
54307;SDS011;40208;39.778;2.710;2022-09-03T10:16:44;12.88;;;2.40;;
54307;SDS011;40208;39.778;2.710;2022-09-03T10:19:57;8.18;;;1.92;;
54307;SDS011;40208;39.778;2.710;2022-09-03T10:23:10;8.90;;;2.53;;
54307;SDS011;40208;39.778;2.710;2022-09-03T10:26:14;9.35;;;2.92;;
54307;SDS011;40208;39.778;2.710;2022-09-03T10:29:05;10.48;;;2.17;;
54307;SDS011;40208;39.778;2.710;2022-09-03T10:35:22;11.07;;;2.97;;
54307;SDS011;40208;39.778;2.710;2022-09-03T10:38:26;13.90;;;2.50;;
54307;SDS011;40208;39.778;2.710;2022-09-03T10:41:25;11.18;;;2.72;;
54307;SDS011;40208;39.778;2.710;2022-09-03T10:50:48;12.50;;;2.90;;
54307;SDS011;40208;39.778;2.710;2022-09-03T11:09:10;11.13;;;2.75;;
54307;SDS011;40208;39.778;2.710;2022-09-03T11:12:04;10.68;;;2.42;;
54307;SDS011;40208;39.778;2.710;2022-09-03T11:15:00;10.57;;;2.42;;
54307;SDS011;40208;39.778;2.710;2022-09-03T11:17:51;10.98;;;2.72;;
54307;SDS011;40208;39.778;2.710;2022-09-03T11:20:41;15.60;;;4.25;;
54307;SDS011;40208;39.778;2.710;2022-09-03T11:23:28;16.85;;;4.15;;
54307;SDS011;40208;39.778;2.710;2022-09-03T11:26:17;14.60;;;5.07;;
54307;SDS011;40208;39.778;2.710;2022-09-03T11:29:11;21.48;;;5.05;;
54307;SDS011;40208;39.778;2.710;2022-09-03T11:32:22;27.48;;;8.05;;
54307;SDS011;40208;39.778;2.710;2022-09-03T11:35:25;48.03;;;14.07;;
54307;SDS011;40208;39.778;2.710;2022-09-03T11:38:25;118.30;;;38.33;;
54307;SDS011;40208;39.778;2.710;2022-09-03T11:41:21;64.55;;;22.45;;
54307;SDS011;40208;39.778;2.710;2022-09-03T11:44:10;113.10;;;37.30;;
54307;SDS011;40208;39.778;2.710;2022-09-03T11:47:01;89.45;;;31.52;;
54307;SDS011;40208;39.778;2.710;2022-09-03T11:50:04;62.90;;;21.77;;
54307;SDS011;40208;39.778;2.710;2022-09-03T11:52:53;53.00;;;18.27;;
54307;SDS011;40208;39.778;2.710;2022-09-03T11:55:54;34.50;;;11.63;;
54307;SDS011;40208;39.778;2.710;2022-09-03T11:58:42;40.25;;;11.95;;
54307;SDS011;40208;39.778;2.710;2022-09-03T12:01:27;32.83;;;10.93;;
54307;SDS011;40208;39.778;2.710;2022-09-03T12:04:13;28.77;;;11.90;;
54307;SDS011;40208;39.778;2.710;2022-09-03T12:07:17;31.67;;;9.07;;
54307;SDS011;40208;39.778;2.710;2022-09-03T12:10:10;22.10;;;6.05;;
54307;SDS011;40208;39.778;2.710;2022-09-03T12:13:21;14.88;;;5.22;;
54307;SDS011;40208;39.778;2.710;2022-09-03T12:19:28;11.85;;;3.33;;
54307;SDS011;40208;39.778;2.710;2022-09-03T12:22:21;16.35;;;3.25;;
54307;SDS011;40208;39.778;2.710;2022-09-03T12:25:09;10.65;;;3.17;;
54307;SDS011;40208;39.778;2.710;2022-09-03T12:27:56;11.52;;;2.40;;
54307;SDS011;40208;39.778;2.710;2022-09-03T12:30:44;16.92;;;2.60;;
54307;SDS011;40208;39.778;2.710;2022-09-03T12:33:30;13.38;;;3.28;;
54307;SDS011;40208;39.778;2.710;2022-09-03T12:36:16;11.68;;;2.65;;
54307;SDS011;40208;39.778;2.710;2022-09-03T12:39:11;16.13;;;2.63;;
54307;SDS011;40208;39.778;2.710;2022-09-03T12:42:04;18.02;;;3.03;;
54307;SDS011;40208;39.778;2.710;2022-09-03T12:44:53;13.63;;;2.83;;
54307;SDS011;40208;39.778;2.710;2022-09-03T12:47:38;10.13;;;2.50;;
54307;SDS011;40208;39.778;2.710;2022-09-03T12:50:24;13.73;;;3.35;;
54307;SDS011;40208;39.778;2.710;2022-09-03T12:53:11;14.73;;;3.65;;
54307;SDS011;40208;39.778;2.710;2022-09-03T12:55:59;15.40;;;3.63;;
54307;SDS011;40208;39.778;2.710;2022-09-03T12:58:48;11.38;;;2.50;;
54307;SDS011;40208;39.778;2.710;2022-09-03T13:01:43;11.45;;;2.75;;
54307;SDS011;40208;39.778;2.710;2022-09-03T13:04:33;19.55;;;3.13;;
54307;SDS011;40208;39.778;2.710;2022-09-03T13:10:27;9.98;;;2.60;;
54307;SDS011;40208;39.778;2.710;2022-09-03T13:13:22;11.15;;;3.30;;
54307;SDS011;40208;39.778;2.710;2022-09-03T13:22:30;8.82;;;2.45;;
54307;SDS011;40208;39.778;2.710;2022-09-03T13:25:24;10.98;;;3.22;;
54307;SDS011;40208;39.778;2.710;2022-09-03T13:28:25;14.60;;;3.20;;
54307;SDS011;40208;39.778;2.710;2022-09-03T13:31:21;11.88;;;3.33;;
54307;SDS011;40208;39.778;2.710;2022-09-03T13:34:08;10.98;;;3.08;;
54307;SDS011;40208;39.778;2.710;2022-09-03T13:40:14;16.65;;;2.63;;
54307;SDS011;40208;39.778;2.710;2022-09-03T13:43:18;11.70;;;2.78;;
54307;SDS011;40208;39.778;2.710;2022-09-03T13:46:16;17.67;;;3.47;;
54307;SDS011;40208;39.778;2.710;2022-09-03T13:49:08;13.45;;;2.17;;
54307;SDS011;40208;39.778;2.710;2022-09-03T13:52:27;12.48;;;2.60;;
54307;SDS011;40208;39.778;2.710;2022-09-03T13:55:22;12.98;;;3.15;;
54307;SDS011;40208;39.778;2.710;2022-09-03T14:01:14;11.45;;;3.22;;
54307;SDS011;40208;39.778;2.710;2022-09-03T14:04:10;9.77;;;2.72;;
54307;SDS011;40208;39.778;2.710;2022-09-03T14:07:02;13.23;;;2.38;;
54307;SDS011;40208;39.778;2.710;2022-09-03T14:12:54;15.65;;;2.70;;
54307;SDS011;40208;39.778;2.710;2022-09-03T14:22:07;10.32;;;3.03;;
54307;SDS011;40208;39.778;2.710;2022-09-03T14:25:00;10.82;;;4.20;;
54307;SDS011;40208;39.778;2.710;2022-09-03T14:27:48;16.92;;;4.10;;
54307;SDS011;40208;39.778;2.710;2022-09-03T14:30:46;12.52;;;4.65;;
54307;SDS011;40208;39.778;2.710;2022-09-03T14:33:42;14.88;;;4.00;;
54307;SDS011;40208;39.778;2.710;2022-09-03T14:36:44;24.08;;;6.57;;
54307;SDS011;40208;39.778;2.710;2022-09-03T14:39:45;16.27;;;4.22;;
54307;SDS011;40208;39.778;2.710;2022-09-03T15:01:10;16.33;;;3.28;;
54307;SDS011;40208;39.778;2.710;2022-09-03T15:04:13;13.40;;;2.65;;
54307;SDS011;40208;39.778;2.710;2022-09-03T15:10:17;14.40;;;3.03;;
54307;SDS011;40208;39.778;2.710;2022-09-03T15:13:35;10.90;;;2.65;;
54307;SDS011;40208;39.778;2.710;2022-09-03T15:19:42;15.07;;;2.80;;
54307;SDS011;40208;39.778;2.710;2022-09-03T15:26:04;10.18;;;2.95;;
54307;SDS011;40208;39.778;2.710;2022-09-03T15:38:23;10.60;;;2.55;;
54307;SDS011;40208;39.778;2.710;2022-09-03T15:44:54;11.50;;;3.20;;
54307;SDS011;40208;39.778;2.710;2022-09-03T15:50:32;12.90;;;2.58;;
54307;SDS011;40208;39.778;2.710;2022-09-03T15:53:26;10.00;;;2.90;;
54307;SDS011;40208;39.778;2.710;2022-09-03T15:59:25;10.93;;;3.10;;
54307;SDS011;40208;39.778;2.710;2022-09-03T16:02:30;13.95;;;3.20;;
54307;SDS011;40208;39.778;2.710;2022-09-03T16:08:16;24.08;;;3.72;;
54307;SDS011;40208;39.778;2.710;2022-09-03T16:11:07;13.10;;;2.92;;
54307;SDS011;40208;39.778;2.710;2022-09-03T16:17:17;12.68;;;2.97;;
54307;SDS011;40208;39.778;2.710;2022-09-03T16:24:02;18.85;;;2.92;;
54307;SDS011;40208;39.778;2.710;2022-09-03T16:26:57;14.02;;;3.20;;
54307;SDS011;40208;39.778;2.710;2022-09-03T16:29:56;14.45;;;3.17;;
54307;SDS011;40208;39.778;2.710;2022-09-03T16:33:05;13.05;;;3.13;;
54307;SDS011;40208;39.778;2.710;2022-09-03T16:36:08;18.42;;;3.42;;
54307;SDS011;40208;39.778;2.710;2022-09-03T17:01:08;12.40;;;3.25;;
54307;SDS011;40208;39.778;2.710;2022-09-03T17:24:54;14.93;;;3.25;;
54307;SDS011;40208;39.778;2.710;2022-09-03T17:27:48;11.93;;;3.13;;
54307;SDS011;40208;39.778;2.710;2022-09-03T17:33:43;13.90;;;3.83;;
54307;SDS011;40208;39.778;2.710;2022-09-03T17:40:10;15.75;;;3.03;;
54307;SDS011;40208;39.778;2.710;2022-09-03T17:45:53;19.40;;;3.20;;
54307;SDS011;40208;39.778;2.710;2022-09-03T17:48:54;12.35;;;2.95;;
54307;SDS011;40208;39.778;2.710;2022-09-03T17:51:44;9.35;;;2.78;;
54307;SDS011;40208;39.778;2.710;2022-09-03T17:57:28;11.70;;;3.00;;
54307;SDS011;40208;39.778;2.710;2022-09-03T18:00:36;11.32;;;3.10;;
54307;SDS011;40208;39.778;2.710;2022-09-03T18:03:31;11.27;;;2.95;;
54307;SDS011;40208;39.778;2.710;2022-09-03T18:09:29;17.05;;;3.30;;
54307;SDS011;40208;39.778;2.710;2022-09-03T18:15:26;15.32;;;3.42;;
54307;SDS011;40208;39.778;2.710;2022-09-03T18:18:20;14.88;;;3.22;;
54307;SDS011;40208;39.778;2.710;2022-09-03T18:21:11;17.58;;;3.40;;
54307;SDS011;40208;39.778;2.710;2022-09-03T18:27:34;17.67;;;3.22;;
54307;SDS011;40208;39.778;2.710;2022-09-03T18:30:41;13.88;;;3.50;;
54307;SDS011;40208;39.778;2.710;2022-09-03T18:33:44;20.00;;;3.30;;
54307;SDS011;40208;39.778;2.710;2022-09-03T18:36:47;10.07;;;3.20;;
54307;SDS011;40208;39.778;2.710;2022-09-03T18:39:50;13.80;;;2.85;;
54307;SDS011;40208;39.778;2.710;2022-09-03T18:46:27;13.20;;;3.67;;
54307;SDS011;40208;39.778;2.710;2022-09-03T18:49:53;13.25;;;3.65;;
54307;SDS011;40208;39.778;2.710;2022-09-03T19:00:03;15.70;;;3.25;;
54307;SDS011;40208;39.778;2.710;2022-09-03T19:16:35;14.95;;;3.72;;
54307;SDS011;40208;39.778;2.710;2022-09-03T19:23:06;10.50;;;3.03;;
54307;SDS011;40208;39.778;2.710;2022-09-03T19:26:30;16.60;;;3.63;;
54307;SDS011;40208;39.778;2.710;2022-09-03T19:29:50;11.77;;;3.88;;
54307;SDS011;40208;39.778;2.710;2022-09-03T19:36:35;10.40;;;3.40;;
54307;SDS011;40208;39.778;2.710;2022-09-03T19:47:01;18.10;;;4.03;;
54307;SDS011;40208;39.778;2.710;2022-09-03T19:50:21;13.50;;;3.70;;
54307;SDS011;40208;39.778;2.710;2022-09-03T19:53:29;21.02;;;4.63;;
54307;SDS011;40208;39.778;2.710;2022-09-03T19:56:35;20.17;;;4.60;;
54307;SDS011;40208;39.778;2.710;2022-09-03T19:59:40;20.25;;;5.45;;
54307;SDS011;40208;39.778;2.710;2022-09-03T20:02:47;12.43;;;3.58;;
54307;SDS011;40208;39.778;2.710;2022-09-03T20:05:50;15.27;;;3.35;;
54307;SDS011;40208;39.778;2.710;2022-09-03T20:08:55;12.38;;;3.58;;
54307;SDS011;40208;39.778;2.710;2022-09-03T20:12:06;12.75;;;3.70;;
54307;SDS011;40208;39.778;2.710;2022-09-03T20:14:51;20.73;;;4.57;;
54307;SDS011;40208;39.778;2.710;2022-09-03T20:20:35;15.15;;;3.60;;
54307;SDS011;40208;39.778;2.710;2022-09-03T20:23:26;13.18;;;3.28;;
54307;SDS011;40208;39.778;2.710;2022-09-03T20:38:44;8.73;;;2.72;;
54307;SDS011;40208;39.778;2.710;2022-09-03T20:45:09;8.43;;;3.35;;
54307;SDS011;40208;39.778;2.710;2022-09-03T20:54:07;16.10;;;3.53;;
54307;SDS011;40208;39.778;2.710;2022-09-03T21:06:10;10.82;;;2.92;;
54307;SDS011;40208;39.778;2.710;2022-09-03T21:09:06;6.15;;;2.63;;
54307;SDS011;40208;39.778;2.710;2022-09-03T21:21:20;13.68;;;2.60;;
54307;SDS011;40208;39.778;2.710;2022-09-03T21:24:33;7.70;;;2.30;;
54307;SDS011;40208;39.778;2.710;2022-09-03T21:27:23;6.97;;;2.00;;
54307;SDS011;40208;39.778;2.710;2022-09-03T21:30:13;6.43;;;1.90;;
54307;SDS011;40208;39.778;2.710;2022-09-03T21:33:05;10.27;;;2.05;;
54307;SDS011;40208;39.778;2.710;2022-09-03T21:36:02;8.57;;;2.10;;
54307;SDS011;40208;39.778;2.710;2022-09-03T21:38:52;14.38;;;2.47;;
54307;SDS011;40208;39.778;2.710;2022-09-03T21:48:08;12.15;;;2.00;;
54307;SDS011;40208;39.778;2.710;2022-09-03T21:50:59;9.60;;;1.90;;
54307;SDS011;40208;39.778;2.710;2022-09-03T21:53:52;5.10;;;1.52;;
54307;SDS011;40208;39.778;2.710;2022-09-03T21:56:56;8.85;;;1.77;;
54307;SDS011;40208;39.778;2.710;2022-09-03T22:03:07;2.70;;;1.25;;
54307;SDS011;40208;39.778;2.710;2022-09-03T22:05:58;6.13;;;1.67;;
54307;SDS011;40208;39.778;2.710;2022-09-03T22:08:54;4.13;;;1.50;;
54307;SDS011;40208;39.778;2.710;2022-09-03T22:14:50;3.67;;;1.63;;
54307;SDS011;40208;39.778;2.710;2022-09-03T22:17:41;5.88;;;1.65;;
54307;SDS011;40208;39.778;2.710;2022-09-03T22:20:51;7.07;;;1.58;;
54307;SDS011;40208;39.778;2.710;2022-09-03T22:23:57;10.95;;;1.60;;
54307;SDS011;40208;39.778;2.710;2022-09-03T22:30:20;6.10;;;1.40;;
54307;SDS011;40208;39.778;2.710;2022-09-03T22:33:14;5.78;;;1.60;;
54307;SDS011;40208;39.778;2.710;2022-09-03T22:36:32;26.90;;;2.40;;
54307;SDS011;40208;39.778;2.710;2022-09-03T22:39:39;10.70;;;1.75;;
54307;SDS011;40208;39.778;2.710;2022-09-03T22:42:37;9.18;;;1.55;;
54307;SDS011;40208;39.778;2.710;2022-09-03T22:45:38;9.32;;;1.38;;
54307;SDS011;40208;39.778;2.710;2022-09-03T22:51:29;11.80;;;2.20;;
54307;SDS011;40208;39.778;2.710;2022-09-03T23:00:51;4.70;;;1.70;;
54307;SDS011;40208;39.778;2.710;2022-09-03T23:03:58;8.68;;;1.63;;
54307;SDS011;40208;39.778;2.710;2022-09-03T23:07:06;3.22;;;1.60;;
54307;SDS011;40208;39.778;2.710;2022-09-03T23:10:07;8.05;;;1.50;;
54307;SDS011;40208;39.778;2.710;2022-09-03T23:16:04;10.90;;;1.77;;